createdAt,value
2019-03-13T00:00:24.682Z,0.47
2019-03-13T00:02:56.420Z,0.05
2019-03-13T00:05:26.498Z,0.05
2019-03-13T00:07:56.681Z,0.15
2019-03-13T00:10:32.362Z,0.20
2019-03-13T00:13:01.309Z,0.00
2019-03-13T00:15:32.413Z,0.15
2019-03-13T00:18:03.719Z,0.30
2019-03-13T00:20:34.136Z,0.00
2019-03-13T00:23:04.292Z,0.00
2019-03-13T00:25:37.591Z,0.00
2019-03-13T00:28:08.691Z,0.08
2019-03-13T00:30:38.885Z,0.00
2019-03-13T00:33:08.971Z,0.10
2019-03-13T00:35:39.150Z,0.90
2019-03-13T00:38:12.236Z,0.10
2019-03-13T00:40:42.349Z,0.10
2019-03-13T00:43:12.487Z,0.28
2019-03-13T00:45:42.829Z,0.30
2019-03-13T00:48:12.906Z,0.10
2019-03-13T00:50:49.131Z,0.23
2019-03-13T00:53:19.231Z,0.00
2019-03-13T00:55:50.877Z,0.78
2019-03-13T00:58:25.308Z,1.10
2019-03-13T01:01:03.499Z,1.47
2019-03-13T01:03:48.595Z,0.37
2019-03-13T01:06:33.995Z,1.05
2019-03-13T01:09:07.374Z,0.20
2019-03-13T01:11:39.528Z,0.23
2019-03-13T01:14:12.747Z,0.82
2019-03-13T01:16:44.798Z,1.40
2019-03-13T01:19:15.381Z,1.50
2019-03-13T01:21:46.946Z,0.90
2019-03-13T01:24:20.461Z,1.37
2019-03-13T01:26:50.598Z,2.35
2019-03-13T01:29:23.823Z,2.85
2019-03-13T01:32:11.553Z,4.70
2019-03-13T01:34:55.905Z,0.45
2019-03-13T01:37:26.351Z,2.42
2019-03-13T01:39:56.632Z,3.12
2019-03-13T01:42:26.755Z,2.08
2019-03-13T01:44:56.918Z,6.05
2019-03-13T01:47:27.035Z,1.92
2019-03-13T01:49:57.215Z,1.40
2019-03-13T01:52:27.347Z,2.52
2019-03-13T01:54:57.491Z,2.42
2019-03-13T01:57:27.694Z,4.45
2019-03-13T01:59:58.067Z,5.20
2019-03-13T02:02:28.403Z,5.78
2019-03-13T02:04:58.931Z,13.90
2019-03-13T02:07:29.111Z,3.50
2019-03-13T02:09:59.535Z,1.30
2019-03-13T02:12:29.678Z,6.60
2019-03-13T02:15:00.079Z,2.90
2019-03-13T02:17:30.506Z,2.50
2019-03-13T02:20:00.744Z,2.17
2019-03-13T02:22:31.033Z,6.42
2019-03-13T02:25:01.302Z,2.58
2019-03-13T02:27:31.502Z,2.62
2019-03-13T02:30:01.752Z,5.58
2019-03-13T02:32:32.041Z,7.40
2019-03-13T02:35:02.320Z,3.27
2019-03-13T02:37:34.222Z,4.12
2019-03-13T02:40:05.315Z,3.22
2019-03-13T02:42:38.689Z,5.55
2019-03-13T02:45:09.701Z,3.55
2019-03-13T02:47:39.892Z,2.80
2019-03-13T02:50:11.954Z,5.12
2019-03-13T02:52:42.157Z,1.17
2019-03-13T02:55:12.480Z,2.45
2019-03-13T02:57:42.721Z,4.65
2019-03-13T03:00:13.855Z,3.05
2019-03-13T03:02:50.128Z,2.67
2019-03-13T03:05:20.439Z,3.55
2019-03-13T03:07:50.649Z,5.47
2019-03-13T03:10:21.173Z,4.35
2019-03-13T03:12:51.372Z,3.25
2019-03-13T03:15:24.559Z,4.60
2019-03-13T03:17:54.961Z,2.15
2019-03-13T03:20:25.122Z,5.87
2019-03-13T03:22:55.320Z,6.50
2019-03-13T03:25:29.484Z,4.78
2019-03-13T03:27:59.656Z,1.87
2019-03-13T03:30:29.909Z,4.50
2019-03-13T03:33:03.237Z,6.15
2019-03-13T03:35:33.366Z,7.60
2019-03-13T03:38:04.071Z,8.05
2019-03-13T03:40:34.235Z,7.03
2019-03-13T03:43:04.442Z,3.08
2019-03-13T03:45:48.734Z,3.83
2019-03-13T03:48:19.408Z,7.78
2019-03-13T03:50:55.736Z,5.83
2019-03-13T03:53:26.083Z,5.03
2019-03-13T03:55:56.283Z,4.33
2019-03-13T03:58:29.188Z,13.75
2019-03-13T04:00:59.486Z,4.15
2019-03-13T04:03:38.444Z,7.15
2019-03-13T04:06:18.860Z,5.00
2019-03-13T04:08:48.985Z,7.80
2019-03-13T04:11:19.138Z,4.22
2019-03-13T04:13:49.369Z,3.52
2019-03-13T04:16:19.558Z,5.10
2019-03-13T04:18:56.442Z,6.67
2019-03-13T04:21:32.714Z,4.35
2019-03-13T04:24:03.178Z,7.50
2019-03-13T04:26:33.319Z,3.62
2019-03-13T04:29:05.939Z,3.83
2019-03-13T04:31:38.175Z,7.85
2019-03-13T04:34:08.375Z,5.42
2019-03-13T04:36:38.514Z,8.65
2019-03-13T04:39:08.645Z,5.85
2019-03-13T04:41:38.832Z,9.30
2019-03-13T04:44:16.313Z,7.87
2019-03-13T04:46:54.461Z,6.75
2019-03-13T04:49:24.790Z,7.78
2019-03-13T04:51:54.941Z,8.55
2019-03-13T04:54:25.136Z,9.73
2019-03-13T04:56:55.295Z,9.05
2019-03-13T04:59:31.331Z,6.53
2019-03-13T05:02:01.855Z,10.08
2019-03-13T05:04:32.161Z,8.03
2019-03-13T05:07:02.258Z,6.45
2019-03-13T05:09:37.517Z,4.67
2019-03-13T05:12:09.987Z,8.13
2019-03-13T05:14:40.120Z,7.87
2019-03-13T05:17:15.325Z,5.87
2019-03-13T05:19:45.520Z,12.88
2019-03-13T05:22:15.791Z,3.47
2019-03-13T05:24:46.024Z,7.78
2019-03-13T05:27:16.135Z,5.80
2019-03-13T05:29:50.680Z,5.17
2019-03-13T05:32:25.259Z,5.28
2019-03-13T05:34:58.968Z,5.35
2019-03-13T05:37:29.341Z,4.65
2019-03-13T05:40:02.206Z,4.12
2019-03-13T05:42:37.211Z,8.13
2019-03-13T05:45:09.381Z,4.80
2019-03-13T05:47:39.635Z,7.45
2019-03-13T05:50:09.823Z,10.05
2019-03-13T05:52:39.945Z,8.43
2019-03-13T05:55:12.122Z,10.98
2019-03-13T05:57:58.569Z,9.45
2019-03-13T06:00:30.139Z,11.18
2019-03-13T06:03:00.359Z,9.38
2019-03-13T06:05:30.740Z,7.92
2019-03-13T06:08:00.952Z,7.60
2019-03-13T06:10:31.127Z,6.47
2019-03-13T06:13:02.801Z,6.42
2019-03-13T06:15:32.963Z,10.25
2019-03-13T06:18:03.267Z,18.37
2019-03-13T06:20:35.567Z,7.85
2019-03-13T06:23:05.644Z,15.83
2019-03-13T06:25:36.021Z,8.50
2019-03-13T06:28:07.290Z,8.78
2019-03-13T06:30:37.586Z,7.78
2019-03-13T06:33:07.832Z,8.98
2019-03-13T06:35:38.002Z,17.32
2019-03-13T06:38:08.230Z,8.83
2019-03-13T06:40:41.221Z,11.38
2019-03-13T06:43:11.510Z,7.35
2019-03-13T06:45:49.919Z,9.60
2019-03-13T06:48:20.610Z,12.13
2019-03-13T06:50:51.350Z,13.45
2019-03-13T06:53:21.568Z,12.20
2019-03-13T06:55:51.794Z,10.98
2019-03-13T06:58:35.986Z,10.20
2019-03-13T07:01:25.127Z,9.35
2019-03-13T07:04:12.684Z,7.05
2019-03-13T07:07:03.833Z,14.70
2019-03-13T07:09:44.429Z,13.62
2019-03-13T07:12:39.710Z,10.80
2019-03-13T07:15:35.977Z,8.75
2019-03-13T07:18:19.219Z,8.90
2019-03-13T07:21:12.232Z,12.18
2019-03-13T07:24:01.411Z,10.08
2019-03-13T07:26:42.898Z,12.47
2019-03-13T07:29:37.724Z,9.68
2019-03-13T07:32:26.820Z,13.30
2019-03-13T07:35:16.585Z,18.12
2019-03-13T07:38:17.706Z,11.78
2019-03-13T07:41:07.106Z,13.28
2019-03-13T07:44:05.416Z,6.60
2019-03-13T07:46:58.642Z,13.03
2019-03-13T07:50:04.817Z,10.45
2019-03-13T07:52:52.971Z,15.55
2019-03-13T07:55:45.813Z,9.05
2019-03-13T07:58:34.926Z,12.43
2019-03-13T08:01:22.983Z,11.93
2019-03-13T08:04:05.052Z,7.83
2019-03-13T08:06:51.696Z,14.13
2019-03-13T08:09:53.260Z,11.88
2019-03-13T08:12:41.799Z,14.55
2019-03-13T08:15:51.061Z,12.90
2019-03-13T08:18:52.467Z,15.13
2019-03-13T08:21:40.350Z,11.50
2019-03-13T08:24:20.183Z,11.53
2019-03-13T08:27:12.354Z,12.60
2019-03-13T08:29:56.207Z,24.72
2019-03-13T08:32:35.739Z,12.15
2019-03-13T08:35:23.299Z,12.60
2019-03-13T08:38:31.629Z,10.78
2019-03-13T08:41:09.916Z,12.03
2019-03-13T08:43:55.339Z,13.08
2019-03-13T08:46:44.773Z,9.23
2019-03-13T08:49:37.519Z,11.73
2019-03-13T08:52:26.994Z,11.57
2019-03-13T08:55:16.976Z,14.45
2019-03-13T08:58:23.321Z,15.60
2019-03-13T09:01:17.679Z,6.60
2019-03-13T09:04:15.571Z,10.20
2019-03-13T09:07:03.515Z,12.88
2019-03-13T09:09:55.644Z,12.00
2019-03-13T09:12:37.312Z,13.65
2019-03-13T09:15:34.113Z,7.33
2019-03-13T09:18:20.127Z,7.50
2019-03-13T09:21:15.268Z,9.68
2019-03-13T09:23:50.898Z,9.78
2019-03-13T09:26:49.524Z,9.35
2019-03-13T09:29:42.215Z,7.78
2019-03-13T09:32:49.748Z,9.73
2019-03-13T09:35:36.256Z,7.17
2019-03-13T09:38:34.395Z,7.60
2019-03-13T09:41:13.725Z,10.75
2019-03-13T09:43:59.892Z,11.05
2019-03-13T09:46:57.514Z,6.50
2019-03-13T09:49:45.622Z,9.40
2019-03-13T09:52:50.165Z,6.70
2019-03-13T09:55:36.744Z,9.75
2019-03-13T09:58:25.459Z,8.65
2019-03-13T10:01:10.001Z,11.38
2019-03-13T10:04:02.164Z,5.17
2019-03-13T10:06:42.404Z,5.65
2019-03-13T10:09:34.509Z,6.20
2019-03-13T10:12:33.235Z,3.62
2019-03-13T10:15:25.477Z,8.93
2019-03-13T10:18:21.249Z,5.45
2019-03-13T10:21:16.456Z,7.08
2019-03-13T10:24:18.697Z,10.00
2019-03-13T10:27:14.037Z,9.83
2019-03-13T10:29:54.369Z,8.35
2019-03-13T10:32:45.123Z,5.97
2019-03-13T10:35:46.757Z,9.18
2019-03-13T10:38:39.032Z,9.28
2019-03-13T10:41:28.234Z,3.25
2019-03-13T10:44:28.872Z,10.82
2019-03-13T10:47:19.259Z,4.87
2019-03-13T10:50:03.454Z,4.80
2019-03-13T10:52:45.862Z,3.52
2019-03-13T10:55:42.969Z,5.00
2019-03-13T10:58:21.776Z,4.12
2019-03-13T11:01:14.712Z,6.20
2019-03-13T11:04:02.004Z,2.55
2019-03-13T11:06:55.328Z,7.97
2019-03-13T11:09:28.499Z,5.70
2019-03-13T11:12:20.678Z,7.05
2019-03-13T11:15:09.785Z,5.08
2019-03-13T11:18:08.292Z,5.75
2019-03-13T11:21:03.642Z,9.33
2019-03-13T11:24:00.833Z,7.05
2019-03-13T11:26:52.755Z,4.58
2019-03-13T11:29:48.084Z,3.62
2019-03-13T11:32:45.705Z,2.37
2019-03-13T11:35:33.948Z,3.95
2019-03-13T11:38:23.110Z,7.22
2019-03-13T11:41:21.318Z,4.67
2019-03-13T11:44:09.592Z,1.10
2019-03-13T11:47:19.092Z,3.20
2019-03-13T11:50:28.356Z,10.13
2019-03-13T11:53:24.242Z,2.30
2019-03-13T11:56:22.644Z,4.47
2019-03-13T11:59:05.931Z,2.40
2019-03-13T12:01:59.650Z,0.70
2019-03-13T12:04:54.719Z,1.62
2019-03-13T12:07:44.197Z,2.20
2019-03-13T12:10:33.824Z,3.72
2019-03-13T12:13:17.204Z,3.47
2019-03-13T12:16:01.247Z,3.42
2019-03-13T12:18:50.618Z,1.00
2019-03-13T12:21:42.782Z,2.58
2019-03-13T12:24:35.031Z,2.47
2019-03-13T12:27:42.862Z,3.72
2019-03-13T12:30:32.509Z,4.05
2019-03-13T12:33:13.063Z,2.72
2019-03-13T12:36:11.964Z,1.32
2019-03-13T12:39:05.652Z,2.75
2019-03-13T12:41:50.537Z,2.12
2019-03-13T12:44:39.697Z,3.50
2019-03-13T12:47:25.104Z,0.65
2019-03-13T12:50:20.226Z,3.42
2019-03-13T12:53:12.529Z,2.60
2019-03-13T12:56:19.705Z,4.05
2019-03-13T12:59:24.035Z,5.92
2019-03-13T13:02:15.617Z,4.35
2019-03-13T13:05:05.559Z,5.92
2019-03-13T13:08:00.676Z,3.33
2019-03-13T13:10:46.744Z,4.83
2019-03-13T13:13:28.704Z,1.20
2019-03-13T13:16:25.914Z,3.60
2019-03-13T13:18:56.791Z,5.10
2019-03-13T13:21:27.118Z,2.50
2019-03-13T13:23:59.729Z,2.20
2019-03-13T13:26:30.619Z,3.05
2019-03-13T13:29:04.810Z,1.87
2019-03-13T13:31:38.171Z,0.88
2019-03-13T13:34:08.441Z,3.75
2019-03-13T13:36:38.667Z,5.87
2019-03-13T13:39:09.529Z,0.75
2019-03-13T13:41:41.667Z,7.87
2019-03-13T13:44:12.013Z,1.87
2019-03-13T13:46:44.560Z,1.45
2019-03-13T13:49:15.321Z,4.87
2019-03-13T13:51:50.827Z,1.32
2019-03-13T13:57:03.783Z,4.15
2019-03-13T13:59:36.416Z,4.03
2019-03-13T14:02:06.635Z,3.52
2019-03-13T14:04:39.763Z,3.65
2019-03-13T14:07:09.941Z,3.12
2019-03-13T14:09:40.038Z,3.37
2019-03-13T14:12:11.179Z,3.10
2019-03-13T14:14:41.327Z,4.00
2019-03-13T14:17:11.449Z,2.85
2019-03-13T14:19:44.531Z,4.95
2019-03-13T14:22:14.671Z,6.50
2019-03-13T14:24:44.874Z,2.85
2019-03-13T14:27:15.273Z,3.95
2019-03-13T14:29:48.113Z,4.50
2019-03-13T14:32:18.745Z,4.22
2019-03-13T14:34:51.357Z,2.00
2019-03-13T14:37:23.263Z,3.67
2019-03-13T14:39:53.426Z,3.77
2019-03-13T14:42:24.146Z,1.37
2019-03-13T14:44:54.358Z,0.10
2019-03-13T14:47:27.002Z,1.35
2019-03-13T14:49:57.104Z,1.25
2019-03-13T14:52:27.284Z,1.12
2019-03-13T14:54:57.420Z,1.17
2019-03-13T14:57:27.586Z,1.35
2019-03-13T14:59:57.697Z,1.72
2019-03-13T15:02:27.858Z,1.00
2019-03-13T15:04:59.977Z,1.37
2019-03-13T15:07:30.003Z,1.87
2019-03-13T15:10:00.404Z,0.82
2019-03-13T15:12:34.784Z,0.65
2019-03-13T15:15:05.188Z,1.35
2019-03-13T15:17:35.368Z,1.07
2019-03-13T15:20:06.508Z,3.42
2019-03-13T15:22:36.714Z,0.05
2019-03-13T15:25:07.498Z,1.25
2019-03-13T15:27:37.618Z,0.75
2019-03-13T15:30:14.106Z,1.40
2019-03-13T15:32:44.244Z,0.75
2019-03-13T15:35:14.474Z,0.20
2019-03-13T15:37:46.251Z,1.20
2019-03-13T15:40:17.942Z,0.17
2019-03-13T15:42:48.686Z,2.40
2019-03-13T15:45:19.716Z,1.02
2019-03-13T15:47:49.964Z,1.22
2019-03-13T15:50:20.512Z,1.00
2019-03-13T15:52:50.699Z,0.25
2019-03-13T15:55:23.996Z,0.85
2019-03-13T15:57:54.241Z,0.95
2019-03-13T16:00:25.084Z,1.45
2019-03-13T16:02:56.034Z,0.30
2019-03-13T16:05:27.305Z,0.65
2019-03-13T16:07:57.466Z,0.78
2019-03-13T16:10:27.744Z,0.45
2019-03-13T16:13:00.698Z,0.78
2019-03-13T16:15:32.299Z,1.20
2019-03-13T16:18:02.632Z,0.62
2019-03-13T16:20:32.975Z,0.40
2019-03-13T16:23:04.680Z,1.35
2019-03-13T16:25:37.427Z,1.32
2019-03-13T16:28:08.036Z,1.85
2019-03-13T16:30:40.797Z,0.10
2019-03-13T16:33:10.956Z,0.10
2019-03-13T16:35:42.362Z,0.72
2019-03-13T16:38:12.602Z,0.90
2019-03-13T16:40:43.024Z,1.12
2019-03-13T16:43:13.175Z,1.15
2019-03-13T16:45:43.439Z,0.98
2019-03-13T16:48:16.297Z,4.55
2019-03-13T16:50:47.954Z,3.25
2019-03-13T16:53:20.520Z,1.67
2019-03-13T16:55:50.621Z,2.62
2019-03-13T16:58:26.452Z,2.52
2019-03-13T17:00:56.359Z,3.62
2019-03-13T17:03:28.787Z,3.70
2019-03-13T17:06:00.986Z,2.22
2019-03-13T17:08:31.199Z,5.30
2019-03-13T17:11:01.515Z,4.55
2019-03-13T17:13:31.721Z,5.85
2019-03-13T17:16:05.283Z,6.05
2019-03-13T17:18:35.605Z,7.87
2019-03-13T17:21:06.660Z,6.55
2019-03-13T17:23:37.795Z,5.60
2019-03-13T17:26:08.113Z,3.67
2019-03-13T17:28:38.308Z,3.87
2019-03-13T17:31:08.435Z,3.42
2019-03-13T17:33:38.573Z,5.05
2019-03-13T17:36:08.731Z,1.85
2019-03-13T17:38:38.995Z,26.75
2019-03-13T17:41:09.169Z,1.25
2019-03-13T17:43:39.832Z,4.20
2019-03-13T17:46:12.595Z,1.95
2019-03-13T17:48:42.774Z,5.42
2019-03-13T17:51:12.898Z,1.00
2019-03-13T17:53:45.233Z,6.00
2019-03-13T17:56:16.343Z,5.45
2019-03-13T17:58:46.533Z,4.47
2019-03-13T18:01:16.649Z,1.65
2019-03-13T18:03:49.827Z,2.55
2019-03-13T18:06:19.432Z,6.55
2019-03-13T18:08:50.521Z,3.58
2019-03-13T18:11:20.693Z,2.77
2019-03-13T18:13:50.882Z,2.95
2019-03-13T18:16:22.113Z,8.28
2019-03-13T18:18:52.224Z,2.30
2019-03-13T18:21:23.531Z,6.03
2019-03-13T18:23:53.752Z,4.05
2019-03-13T18:26:24.489Z,3.87
2019-03-13T18:28:54.589Z,5.78
2019-03-13T18:31:24.831Z,4.47
2019-03-13T18:33:54.935Z,6.97
2019-03-13T18:36:25.331Z,7.22
2019-03-13T18:38:55.522Z,4.72
2019-03-13T18:41:27.783Z,5.97
2019-03-13T18:43:57.923Z,6.53
2019-03-13T18:46:28.437Z,2.83
2019-03-13T18:48:58.515Z,1.62
2019-03-13T18:51:28.792Z,6.25
2019-03-13T18:53:59.025Z,3.90
2019-03-13T18:56:29.384Z,5.15
2019-03-13T18:58:59.480Z,2.77
2019-03-13T19:01:29.647Z,3.60
2019-03-13T19:04:00.043Z,4.22
2019-03-13T19:06:30.234Z,4.08
2019-03-13T19:09:00.323Z,5.05
2019-03-13T19:11:35.002Z,1.55
2019-03-13T19:14:05.110Z,2.87
2019-03-13T19:16:35.398Z,4.58
2019-03-13T19:19:05.538Z,6.92
2019-03-13T19:21:36.991Z,6.30
2019-03-13T19:24:08.473Z,6.92
2019-03-13T19:26:38.982Z,6.35
2019-03-13T19:29:09.074Z,6.03
2019-03-13T19:31:39.268Z,13.70
2019-03-13T19:34:11.001Z,8.05
2019-03-13T19:36:41.236Z,7.28
2019-03-13T19:39:11.362Z,14.18
2019-03-13T19:41:42.276Z,8.13
2019-03-13T19:44:14.440Z,8.18
2019-03-13T19:46:44.383Z,7.20
2019-03-13T19:49:17.744Z,9.45
2019-03-13T19:51:48.042Z,12.98
2019-03-13T19:54:22.382Z,6.47
2019-03-13T19:56:52.597Z,9.40
2019-03-13T19:59:24.916Z,11.18
2019-03-13T20:01:57.291Z,9.28
2019-03-13T20:04:30.717Z,11.33
2019-03-13T20:07:00.965Z,9.10
2019-03-13T20:09:31.300Z,14.43
2019-03-13T20:12:01.508Z,10.80
2019-03-13T20:14:31.930Z,10.05
2019-03-13T20:17:02.339Z,11.40
2019-03-13T20:19:34.980Z,10.50
2019-03-13T20:22:06.559Z,11.90
2019-03-13T20:24:38.821Z,11.48
2019-03-13T20:27:08.728Z,13.60
2019-03-13T20:29:38.823Z,10.35
2019-03-13T20:32:09.083Z,7.62
2019-03-13T20:34:39.210Z,22.62
2019-03-13T20:37:11.947Z,9.10
2019-03-13T20:39:43.714Z,13.45
2019-03-13T20:42:13.907Z,10.48
2019-03-13T20:44:44.150Z,13.95
2019-03-13T20:47:16.856Z,7.10
2019-03-13T20:49:50.135Z,11.57
2019-03-13T20:52:20.375Z,16.35
2019-03-13T20:54:50.677Z,9.80
2019-03-13T20:57:22.714Z,13.03
2019-03-13T20:59:53.075Z,15.83
2019-03-13T21:02:23.680Z,14.23
2019-03-13T21:04:53.801Z,8.33
2019-03-13T21:07:24.126Z,13.70
2019-03-13T21:09:55.556Z,10.65
2019-03-13T21:12:25.887Z,16.27
2019-03-13T21:14:56.389Z,7.22
2019-03-13T21:17:26.679Z,13.53
2019-03-13T21:19:56.877Z,15.68
2019-03-13T21:22:27.211Z,10.30
2019-03-13T21:24:57.423Z,10.63
2019-03-13T21:27:27.850Z,9.28
2019-03-13T21:29:58.080Z,18.98
2019-03-13T21:32:28.262Z,16.07
2019-03-13T21:35:00.697Z,19.25
2019-03-13T21:37:30.957Z,10.68
2019-03-13T21:40:01.275Z,10.55
2019-03-13T21:42:35.381Z,9.95
2019-03-13T21:45:06.585Z,13.30
2019-03-13T21:47:38.651Z,11.45
2019-03-13T21:50:12.186Z,9.25
2019-03-13T21:52:42.581Z,11.70
2019-03-13T21:55:13.047Z,11.28
2019-03-13T21:57:43.398Z,16.87
2019-03-13T22:00:20.065Z,28.87
2019-03-13T22:02:50.411Z,16.85
2019-03-13T22:05:25.741Z,15.43
2019-03-13T22:07:52.467Z,13.80
2019-03-13T22:10:22.649Z,12.82
2019-03-13T22:12:53.352Z,13.43
2019-03-13T22:15:25.801Z,16.15
2019-03-13T22:17:57.422Z,9.55
2019-03-13T22:20:27.619Z,15.68
2019-03-13T22:22:57.728Z,18.00
2019-03-13T22:25:27.845Z,19.70
2019-03-13T22:28:00.774Z,14.07
2019-03-13T22:30:30.956Z,17.73
2019-03-13T22:33:01.600Z,22.07
2019-03-13T22:35:31.713Z,20.40
2019-03-13T22:38:01.871Z,17.52
2019-03-13T22:40:33.103Z,14.25
2019-03-13T22:43:03.303Z,17.45
2019-03-13T22:45:33.585Z,19.57
2019-03-13T22:48:03.817Z,19.82
2019-03-13T22:50:33.905Z,18.60
2019-03-13T22:53:06.231Z,27.27
2019-03-13T22:55:39.985Z,26.80
2019-03-13T22:58:09.793Z,26.07
2019-03-13T23:00:56.264Z,23.87
2019-03-13T23:03:29.987Z,27.37
2019-03-13T23:06:00.691Z,31.57
2019-03-13T23:08:31.237Z,25.20
2019-03-13T23:11:02.618Z,30.20
2019-03-13T23:13:32.916Z,30.27
2019-03-13T23:16:04.822Z,18.02
2019-03-13T23:18:35.237Z,24.72
2019-03-13T23:21:05.801Z,27.48
2019-03-13T23:23:35.958Z,15.70
2019-03-13T23:26:07.154Z,14.53
2019-03-13T23:28:37.583Z,15.05
2019-03-13T23:31:10.848Z,22.40
2019-03-13T23:33:41.292Z,13.43
2019-03-13T23:36:11.825Z,9.70
2019-03-13T23:38:43.372Z,16.00
2019-03-13T23:41:16.588Z,11.18
2019-03-13T23:43:46.838Z,10.70
2019-03-13T23:46:17.132Z,14.93
2019-03-13T23:48:47.362Z,11.48
2019-03-13T23:51:18.352Z,16.87
2019-03-13T23:53:48.541Z,12.18
2019-03-13T23:56:18.961Z,9.58
2019-03-13T23:58:49.232Z,15.85
